Time;durP1;ratioP1;P1;durP2;ratioP2;P2;SDS_P1;SDS_P2;PMS_P1;PMS_P2;Temp;Humidity;BMP_temperature;BMP_pressure;BME280_temperature;BME280_humidity;BME280_pressure;Samples;Min_cycle;Max_cycle;Signal;HPM_P1;HPM_P2
2021/12/30 00:01:49;;;;;;;;;;;;;;;7.41;59.74;99774.31;4266704;33;19985;-83
2021/12/30 00:04:16;;;;;;;;;;;;;;;7.75;58.88;99770.03;4279982;33;20593;-82
2021/12/30 00:06:43;;;;;;;;;;;;;;;7.79;58.63;99771.87;4249705;33;19997;-82
2021/12/30 00:09:11;;;;;;;;;;;;;;;7.73;58.86;99771.72;4278532;33;20055;-82
2021/12/30 00:11:38;;;;;;;;;;;;;;;7.69;58.91;99780.22;4279832;33;20025;-82
2021/12/30 00:14:05;;;;;;;;;;;;;;;7.62;59.16;99786.00;4279177;33;20324;-82
2021/12/30 00:16:31;;;;;;;;;;;;;;;7.65;58.97;99784.38;4247455;33;20012;-83
2021/12/30 00:19:00;;;;;;;;;;;;;;;7.73;58.95;99791.47;4254472;33;20076;-83
2021/12/30 00:21:27;;;;;;;;;;;;;;;7.63;59.03;99801.53;4260466;33;20763;-83
2021/12/30 00:23:54;;;;;;;;;;;;;;;7.75;58.43;99795.81;4279814;33;20000;-82
2021/12/30 00:26:21;;;;;;;;;;;;;;;7.59;58.79;99796.22;4278835;33;20007;-82
2021/12/30 00:28:48;;;;;;;;;;;;;;;7.73;58.33;99792.34;4280032;33;19993;-84
2021/12/30 00:31:15;;;;;;;;;;;;;;;7.68;58.63;99796.47;4254605;33;20029;-84
2021/12/30 00:33:42;;;;;;;;;;;;;;;7.60;58.95;99805.72;4279330;33;20007;-83
2021/12/30 00:36:09;;;;;;;;;;;;;;;7.49;59.48;99817.41;4279629;33;19992;-84
2021/12/30 00:38:37;;;;;;;;;;;;;;;7.79;58.76;99818.28;4279640;33;19985;-83
2021/12/30 00:41:04;;;;;;;;;;;;;;;7.76;58.78;99818.19;4253982;33;20375;-83
2021/12/30 00:43:31;;;;;;;;;;;;;;;7.85;58.54;99818.44;4266626;33;20003;-83
2021/12/30 00:45:58;;;;;;;;;;;;;;;7.60;59.22;99818.59;4278466;33;20004;-83
2021/12/30 00:48:25;;;;;;;;;;;;;;;7.46;59.93;99829.38;4278882;33;20036;-83
2021/12/30 00:50:54;;;;;;;;;;;;;;;7.49;60.11;99828.59;4279422;33;19985;-83
2021/12/30 00:53:21;;;;;;;;;;;;;;;7.64;59.62;99828.16;4266446;33;20003;-83
2021/12/30 00:55:48;;;;;;;;;;;;;;;7.62;59.68;99834.94;4265725;33;20395;-84
2021/12/30 00:58:15;;;;;;;;;;;;;;;7.75;59.38;99838.75;4279529;33;20032;-83
2021/12/30 01:00:43;;;;;;;;;;;;;;;7.78;59.13;99842.28;4278719;33;20322;-82
2021/12/30 01:03:11;;;;;;;;;;;;;;;7.67;59.69;99843.69;4248802;33;20009;-82
2021/12/30 01:05:38;;;;;;;;;;;;;;;7.65;59.46;99851.38;4278560;33;19985;-83
2021/12/30 01:08:05;;;;;;;;;;;;;;;7.50;60.21;99855.22;4279348;33;21367;-83
2021/12/30 01:10:34;;;;;;;;;;;;;;;7.71;59.40;99850.66;4265450;33;20350;-82
2021/12/30 01:13:05;;;;;;;;;;;;;;;7.41;60.15;99851.56;4253950;33;19989;-82
2021/12/30 01:15:45;;;;;;;;;;;;;;;7.39;60.30;99853.22;4255039;33;19992;-83
2021/12/30 01:18:30;;;;;;;;;;;;;;;7.40;60.46;99854.97;4265307;33;20332;-82
2021/12/30 01:20:58;;;;;;;;;;;;;;;7.51;60.29;99852.69;4264175;33;20037;-83
2021/12/30 01:23:25;;;;;;;;;;;;;;;7.59;60.19;99860.62;4267803;33;19985;-83
2021/12/30 01:25:52;;;;;;;;;;;;;;;7.62;59.96;99871.03;4280506;33;20060;-83
2021/12/30 01:28:19;;;;;;;;;;;;;;;7.60;60.23;99872.69;4280651;33;20395;-83
2021/12/30 01:30:47;;;;;;;;;;;;;;;7.45;60.41;99868.84;4280776;33;20036;-82
2021/12/30 01:33:15;;;;;;;;;;;;;;;7.34;60.57;99862.53;4268147;33;20026;-83
2021/12/30 01:35:42;;;;;;;;;;;;;;;7.66;59.63;99870.28;4281361;33;20086;-82
2021/12/30 01:38:12;;;;;;;;;;;;;;;7.64;59.82;99864.22;4280285;33;19996;-82
2021/12/30 01:40:41;;;;;;;;;;;;;;;7.65;60.11;99866.81;4281535;33;20268;-83
2021/12/30 01:43:10;;;;;;;;;;;;;;;7.41;60.71;99867.00;4279589;33;20007;-82
2021/12/30 01:45:38;;;;;;;;;;;;;;;7.71;59.69;99866.13;4281070;33;19997;-83
2021/12/30 01:48:05;;;;;;;;;;;;;;;7.77;59.58;99870.59;4280968;33;20034;-83
2021/12/30 01:50:33;;;;;;;;;;;;;;;7.69;59.85;99878.13;4281098;33;20044;-83
2021/12/30 01:53:00;;;;;;;;;;;;;;;7.61;60.20;99877.00;4267278;33;20033;-83
2021/12/30 01:55:27;;;;;;;;;;;;;;;7.67;59.96;99882.34;4268057;33;20288;-83
2021/12/30 01:57:54;;;;;;;;;;;;;;;7.66;59.94;99883.19;4280485;33;20023;-83
2021/12/30 02:00:22;;;;;;;;;;;;;;;7.51;60.48;99875.00;4279537;33;19977;-83
2021/12/30 02:02:49;;;;;;;;;;;;;;;7.77;59.54;99876.59;4281039;33;20033;-83
2021/12/30 02:05:17;;;;;;;;;;;;;;;7.79;59.32;99869.81;4267314;33;20012;-83
2021/12/30 02:07:44;;;;;;;;;;;;;;;7.66;59.67;99868.59;4279543;33;20000;-83
2021/12/30 02:10:12;;;;;;;;;;;;;;;7.79;59.03;99869.81;4261693;33;19989;-83
2021/12/30 02:12:40;;;;;;;;;;;;;;;7.69;59.74;99867.81;4267602;33;20454;-82
2021/12/30 02:15:11;;;;;;;;;;;;;;;7.72;59.61;99861.84;4280392;33;20427;-82
2021/12/30 02:17:38;;;;;;;;;;;;;;;7.55;60.20;99869.09;4280201;33;20004;-83
2021/12/30 02:20:07;;;;;;;;;;;;;;;7.58;60.12;99867.47;4274744;33;19995;-82
2021/12/30 02:22:34;;;;;;;;;;;;;;;7.69;59.94;99872.97;4280966;33;20365;-82
2021/12/30 02:25:03;;;;;;;;;;;;;;;7.61;60.22;99874.44;4279011;33;20004;-82
2021/12/30 02:27:34;;;;;;;;;;;;;;;7.69;60.04;99878.13;4267225;33;20005;-82
2021/12/30 02:30:00;;;;;;;;;;;;;;;7.71;59.94;99878.13;4280835;33;20036;-82
2021/12/30 02:32:27;;;;;;;;;;;;;;;7.65;60.13;99876.25;4267408;33;20027;-83
2021/12/30 02:34:55;;;;;;;;;;;;;;;7.77;59.76;99889.50;4255383;33;20011;-82
2021/12/30 02:37:21;;;;;;;;;;;;;;;7.73;59.96;99879.94;4267559;33;20029;-82
2021/12/30 02:39:53;;;;;;;;;;;;;;;8.04;58.55;99873.94;4280863;33;20048;-82
2021/12/30 02:42:24;;;;;;;;;;;;;;;7.87;59.22;99868.28;4267250;33;20053;-82
2021/12/30 02:44:51;;;;;;;;;;;;;;;7.82;59.71;99853.56;4280280;33;20788;-83
2021/12/30 02:47:19;;;;;;;;;;;;;;;7.81;59.18;99846.63;4244033;33;20354;-84
2021/12/30 02:49:46;;;;;;;;;;;;;;;7.85;59.18;99849.34;4280559;33;20089;-84
2021/12/30 02:52:13;;;;;;;;;;;;;;;7.59;60.05;99858.03;4280553;33;19985;-83
2021/12/30 02:54:41;;;;;;;;;;;;;;;7.82;59.57;99863.87;4264425;33;20018;-83
2021/12/30 02:57:09;;;;;;;;;;;;;;;7.75;59.97;99873.09;4266799;33;19985;-84
2021/12/30 02:59:36;;;;;;;;;;;;;;;7.80;59.78;99861.22;4244413;33;19973;-83
2021/12/30 03:02:03;;;;;;;;;;;;;;;7.87;59.27;99857.97;4265696;33;19993;-83
2021/12/30 03:04:31;;;;;;;;;;;;;;;7.75;59.90;99867.94;4270841;33;19984;-83
2021/12/30 03:06:58;;;;;;;;;;;;;;;7.84;59.72;99868.22;4266688;33;20032;-83
2021/12/30 03:09:25;;;;;;;;;;;;;;;7.76;60.02;99869.72;4267033;33;19997;-83
2021/12/30 03:11:52;;;;;;;;;;;;;;;7.85;59.64;99869.97;4280596;33;19995;-83
2021/12/30 03:14:22;;;;;;;;;;;;;;;7.83;59.88;99876.78;4279834;33;19973;-82
2021/12/30 03:16:49;;;;;;;;;;;;;;;7.83;59.80;99879.34;4280489;33;19985;-82
2021/12/30 03:19:16;;;;;;;;;;;;;;;7.70;60.13;99879.84;4243893;33;20001;-82
2021/12/30 03:21:43;;;;;;;;;;;;;;;7.79;59.90;99880.09;4266926;33;20328;-82
2021/12/30 03:24:11;;;;;;;;;;;;;;;7.64;60.30;99885.69;4268266;33;19985;-82
2021/12/30 03:26:38;;;;;;;;;;;;;;;7.88;59.42;99876.88;4267856;33;20004;-83
2021/12/30 03:29:05;;;;;;;;;;;;;;;7.70;59.99;99885.00;4279648;33;20348;-82
2021/12/30 03:31:32;;;;;;;;;;;;;;;7.76;60.01;99890.34;4280055;33;20034;-82
2021/12/30 03:33:59;;;;;;;;;;;;;;;7.82;59.92;99890.50;4267422;33;19992;-82
2021/12/30 03:36:25;;;;;;;;;;;;;;;7.87;59.83;99885.47;4280518;33;19992;-82
2021/12/30 03:38:53;;;;;;;;;;;;;;;7.93;59.42;99878.78;4267185;33;20109;-82
2021/12/30 03:41:21;;;;;;;;;;;;;;;8.00;59.21;99878.94;4280498;33;19985;-82
2021/12/30 03:43:48;;;;;;;;;;;;;;;8.02;59.04;99882.44;4279913;33;20401;-83
2021/12/30 03:46:15;;;;;;;;;;;;;;;8.08;58.79;99887.75;4267129;33;19985;-83
2021/12/30 03:48:44;;;;;;;;;;;;;;;7.99;59.04;99898.69;4266635;33;20007;-83
2021/12/30 03:51:14;;;;;;;;;;;;;;;8.06;58.83;99899.72;4278971;33;19989;-83
2021/12/30 03:53:42;;;;;;;;;;;;;;;8.06;58.73;99899.72;4267578;33;19993;-82
2021/12/30 03:56:10;;;;;;;;;;;;;;;7.99;59.13;99908.13;4279464;33;20007;-83
2021/12/30 03:58:37;;;;;;;;;;;;;;;7.88;59.44;99916.44;4280489;33;20020;-84
2021/12/30 04:01:04;;;;;;;;;;;;;;;8.14;58.54;99918.88;4279947;33;19977;-83
2021/12/30 04:03:33;;;;;;;;;;;;;;;7.99;58.63;99919.31;4242089;33;20071;-83
2021/12/30 04:05:59;;;;;;;;;;;;;;;7.89;59.32;99918.19;4266305;33;19980;-83
2021/12/30 04:08:26;;;;;;;;;;;;;;;7.88;59.10;99916.44;4258868;33;19981;-84
2021/12/30 04:10:55;;;;;;;;;;;;;;;7.91;58.79;99906.22;4266924;33;19988;-83
2021/12/30 04:13:21;;;;;;;;;;;;;;;7.83;59.17;99906.84;4267090;33;20028;-83
2021/12/30 04:15:48;;;;;;;;;;;;;;;7.44;60.57;99928.03;4279394;33;20002;-83
2021/12/30 04:18:15;;;;;;;;;;;;;;;7.71;60.14;99927.97;4279994;33;19981;-83
2021/12/30 04:20:42;;;;;;;;;;;;;;;7.66;59.71;99924.41;4280236;33;19989;-83
2021/12/30 04:23:09;;;;;;;;;;;;;;;7.62;59.93;99933.72;4279309;33;19973;-82
2021/12/30 04:25:36;;;;;;;;;;;;;;;7.31;60.83;99942.25;4280227;33;19997;-82
2021/12/30 04:28:03;;;;;;;;;;;;;;;7.43;61.04;99952.94;4279938;33;19991;-82
2021/12/30 04:30:30;;;;;;;;;;;;;;;7.56;60.79;99961.00;4280017;33;19985;-82
2021/12/30 04:32:57;;;;;;;;;;;;;;;7.42;61.36;99955.44;4280241;33;20736;-82
2021/12/30 04:35:29;;;;;;;;;;;;;;;7.65;60.36;99950.97;4267068;33;20034;-82
2021/12/30 04:37:56;;;;;;;;;;;;;;;7.76;60.07;99947.00;4279385;33;19991;-83
2021/12/30 04:40:23;;;;;;;;;;;;;;;7.69;60.47;99950.25;4279804;33;19989;-83
2021/12/30 04:42:50;;;;;;;;;;;;;;;7.59;60.75;99968.81;4279421;33;20029;-83
2021/12/30 04:45:18;;;;;;;;;;;;;;;7.52;61.21;99972.03;4266515;33;20068;-84
2021/12/30 04:47:45;;;;;;;;;;;;;;;7.54;61.57;99985.84;4279766;33;19999;-84
2021/12/30 04:50:12;;;;;;;;;;;;;;;7.78;60.57;99981.41;4279127;33;19990;-84
2021/12/30 04:52:39;;;;;;;;;;;;;;;7.71;61.07;99982.06;4277960;33;20999;-84
2021/12/30 04:55:07;;;;;;;;;;;;;;;7.77;60.78;99989.12;4252640;33;20038;-83
2021/12/30 04:57:33;;;;;;;;;;;;;;;7.46;61.71;99994.19;4267623;33;19998;-83
2021/12/30 05:00:00;;;;;;;;;;;;;;;7.79;60.67;100008.94;4281386;33;19997;-83
2021/12/30 05:02:37;;;;;;;;;;;;;;;7.71;60.95;100019.84;4280839;33;20419;-83
2021/12/30 05:05:05;;;;;;;;;;;;;;;7.64;61.17;100014.50;4279978;33;20072;-83
2021/12/30 05:07:32;;;;;;;;;;;;;;;7.57;61.47;100019.44;4280320;33;20048;-83
2021/12/30 05:09:58;;;;;;;;;;;;;;;7.60;61.44;100029.84;4281536;33;20258;-83
2021/12/30 05:12:25;;;;;;;;;;;;;;;7.79;60.52;100036.44;4281636;33;19984;-83
2021/12/30 05:14:52;;;;;;;;;;;;;;;7.81;60.77;100063.09;4281034;33;19989;-83
2021/12/30 05:17:19;;;;;;;;;;;;;;;7.74;60.99;100072.34;4261920;33;19981;-82
2021/12/30 05:19:46;;;;;;;;;;;;;;;7.82;60.74;100070.87;4281541;33;20025;-82
2021/12/30 05:22:13;;;;;;;;;;;;;;;7.79;60.80;100075.94;4280902;33;20045;-83
2021/12/30 05:24:40;;;;;;;;;;;;;;;7.78;61.00;100066.44;4281358;33;19984;-83
2021/12/30 05:27:08;;;;;;;;;;;;;;;7.76;61.09;100073.28;4281280;33;19969;-83
2021/12/30 05:29:34;;;;;;;;;;;;;;;7.74;61.28;100087.81;4280507;33;20004;-83
2021/12/30 05:32:01;;;;;;;;;;;;;;;7.90;60.63;100079.72;4281409;33;20032;-83
2021/12/30 05:34:33;;;;;;;;;;;;;;;7.77;61.34;100082.75;4281338;33;19981;-82
2021/12/30 05:37:00;;;;;;;;;;;;;;;7.96;60.63;100078.16;4267843;33;20025;-83
2021/12/30 05:39:29;;;;;;;;;;;;;;;7.89;60.88;100083.12;4239744;33;19988;-83
2021/12/30 05:41:56;;;;;;;;;;;;;;;7.96;60.78;100085.91;4281322;33;19993;-83
2021/12/30 05:44:23;;;;;;;;;;;;;;;7.73;61.27;100096.38;4267415;33;20439;-82
2021/12/30 05:46:50;;;;;;;;;;;;;;;7.79;61.35;100100.84;4280491;33;20037;-83
2021/12/30 05:49:17;;;;;;;;;;;;;;;7.85;61.20;100095.88;4280968;33;20040;-83
2021/12/30 05:51:44;;;;;;;;;;;;;;;7.89;61.11;100093.44;4277225;33;19981;-84
2021/12/30 05:54:11;;;;;;;;;;;;;;;7.82;61.23;100101.81;4271106;33;19989;-83
2021/12/30 05:56:38;;;;;;;;;;;;;;;8.02;60.65;100096.41;4280859;33;20283;-83
2021/12/30 05:59:05;;;;;;;;;;;;;;;8.07;60.14;100087.06;4280484;33;19989;-84
2021/12/30 06:01:32;;;;;;;;;;;;;;;8.02;60.56;100089.53;4249400;33;20001;-82
2021/12/30 06:04:02;;;;;;;;;;;;;;;8.01;60.54;100082.62;4280885;33;20376;-83
2021/12/30 06:06:29;;;;;;;;;;;;;;;7.84;60.77;100089.84;4279634;33;19981;-82
2021/12/30 06:08:56;;;;;;;;;;;;;;;7.98;60.51;100099.72;4247431;33;20036;-83
2021/12/30 06:11:23;;;;;;;;;;;;;;;7.80;60.86;100118.06;4278203;33;19981;-82
2021/12/30 06:13:51;;;;;;;;;;;;;;;7.79;61.08;100127.50;4280828;33;20360;-82
2021/12/30 06:16:18;;;;;;;;;;;;;;;7.91;60.74;100133.03;4255744;33;20025;-82
2021/12/30 06:18:45;;;;;;;;;;;;;;;7.98;60.60;100128.06;4280951;33;20065;-82
2021/12/30 06:21:12;;;;;;;;;;;;;;;7.99;60.49;100134.97;4280387;33;19981;-83
2021/12/30 06:23:40;;;;;;;;;;;;;;;8.01;60.08;100136.78;4268021;33;20004;-82
2021/12/30 06:26:07;;;;;;;;;;;;;;;8.12;59.86;100126.78;4269045;33;19982;-82
2021/12/30 06:28:33;;;;;;;;;;;;;;;8.05;60.13;100130.00;4281016;33;20036;-82
2021/12/30 06:31:00;;;;;;;;;;;;;;;8.00;60.25;100147.88;4276961;33;20806;-81
2021/12/30 06:33:27;;;;;;;;;;;;;;;7.88;60.60;100153.56;4280764;33;19993;-81
2021/12/30 06:35:54;;;;;;;;;;;;;;;7.91;60.18;100152.75;4267340;33;19985;-82
2021/12/30 06:38:20;;;;;;;;;;;;;;;7.91;60.45;100152.75;4268425;33;20045;-82
2021/12/30 06:40:47;;;;;;;;;;;;;;;8.06;59.65;100153.25;4294087;33;20024;-82
2021/12/30 06:43:14;;;;;;;;;;;;;;;8.13;59.21;100162.03;4295093;33;19996;-82
2021/12/30 06:45:44;;;;;;;;;;;;;;;8.05;59.77;100173.84;4259912;33;19973;-81
2021/12/30 06:48:14;;;;;;;;;;;;;;;7.95;60.25;100182.09;4280709;33;19993;-81
2021/12/30 06:50:41;;;;;;;;;;;;;;;7.91;60.12;100179.44;4289005;33;19984;-81
2021/12/30 06:53:09;;;;;;;;;;;;;;;7.76;60.51;100188.38;4277506;33;19988;-82
2021/12/30 06:55:36;;;;;;;;;;;;;;;7.78;60.57;100195.28;4255865;33;20272;-82
2021/12/30 06:58:03;;;;;;;;;;;;;;;7.71;60.90;100219.09;4254995;33;20011;-81
2021/12/30 07:00:30;;;;;;;;;;;;;;;7.65;61.32;100234.38;4274431;33;20349;-81
2021/12/30 07:02:57;;;;;;;;;;;;;;;7.49;61.90;100239.81;4282886;33;19997;-81
2021/12/30 07:05:25;;;;;;;;;;;;;;;7.55;61.71;100248.62;4264774;33;19981;-80
2021/12/30 07:07:52;;;;;;;;;;;;;;;7.33;62.09;100239.28;4266540;33;20023;-80
2021/12/30 07:10:19;;;;;;;;;;;;;;;7.53;61.60;100231.34;4275940;33;20351;-82
2021/12/30 07:12:45;;;;;;;;;;;;;;;7.63;60.92;100228.31;4279787;33;20029;-82
2021/12/30 07:15:12;;;;;;;;;;;;;;;7.59;61.17;100229.00;4266617;33;19992;-82
2021/12/30 07:17:40;;;;;;;;;;;;;;;7.73;60.53;100235.50;4261752;33;20004;-83
2021/12/30 07:20:08;;;;;;;;;;;;;;;7.33;61.71;100223.81;4274174;33;20001;-82
2021/12/30 07:22:35;;;;;;;;;;;;;;;7.40;61.51;100225.81;4265247;33;20057;-82
2021/12/30 07:25:10;;;;;;;;;;;;;;;7.38;62.02;100227.44;4266005;33;20343;-84
2021/12/30 07:27:37;;;;;;;;;;;;;;;7.44;61.64;100237.97;4241573;33;20001;-88
2021/12/30 07:30:04;;;;;;;;;;;;;;;7.56;61.16;100231.47;4265173;33;19989;-81
2021/12/30 07:32:31;;;;;;;;;;;;;;;7.27;61.75;100236.47;4274901;33;20008;-82
2021/12/30 07:34:57;;;;;;;;;;;;;;;7.28;62.45;100256.28;4276625;33;19985;-83
2021/12/30 07:37:24;;;;;;;;;;;;;;;7.37;62.34;100261.75;4282842;33;20821;-84
2021/12/30 07:39:51;;;;;;;;;;;;;;;7.63;61.50;100264.37;4269579;33;20001;-81
2021/12/30 07:42:18;;;;;;;;;;;;;;;7.59;61.46;100262.47;4263216;33;19989;-81
2021/12/30 07:44:45;;;;;;;;;;;;;;;7.66;61.32;100267.94;4261082;33;19978;-82
2021/12/30 07:47:17;;;;;;;;;;;;;;;7.71;61.11;100273.22;4248743;33;19997;-80
2021/12/30 07:49:43;;;;;;;;;;;;;;;7.69;61.01;100262.00;4269414;33;20007;-82
2021/12/30 07:52:10;;;;;;;;;;;;;;;7.70;60.89;100268.91;4272211;33;19985;-81
2021/12/30 07:54:37;;;;;;;;;;;;;;;7.80;60.55;100265.81;4265848;33;19985;-82
2021/12/30 07:57:04;;;;;;;;;;;;;;;7.70;61.09;100271.47;4262174;33;20040;-82
2021/12/30 07:59:31;;;;;;;;;;;;;;;7.86;60.62;100272.88;4261967;33;19981;-81
2021/12/30 08:01:58;;;;;;;;;;;;;;;7.86;60.48;100273.75;4273887;33;19985;-81
2021/12/30 08:04:25;;;;;;;;;;;;;;;7.56;61.26;100268.44;4268886;33;19993;-82
2021/12/30 08:06:52;;;;;;;;;;;;;;;7.76;60.80;100271.69;4275221;33;20488;-80
2021/12/30 08:09:19;;;;;;;;;;;;;;;7.90;60.04;100265.28;4272974;33;19980;-81
2021/12/30 08:11:46;;;;;;;;;;;;;;;7.89;60.23;100273.84;4273694;33;20037;-82
2021/12/30 08:14:13;;;;;;;;;;;;;;;7.86;60.42;100272.88;4276075;33;19977;-78
2021/12/30 08:16:40;;;;;;;;;;;;;;;7.66;61.13;100269.62;4258564;33;19989;-82
2021/12/30 08:19:07;;;;;;;;;;;;;;;7.85;61.02;100284.91;4277893;33;20010;-81
2021/12/30 08:21:34;;;;;;;;;;;;;;;7.73;60.85;100276.75;4276273;33;20012;-81
2021/12/30 08:24:00;;;;;;;;;;;;;;;7.75;60.56;100279.34;4262143;33;20003;-85
2021/12/30 08:26:27;;;;;;;;;;;;;;;7.65;61.19;100285.88;4275585;33;20836;-83
2021/12/30 08:28:54;;;;;;;;;;;;;;;7.60;61.37;100282.28;4276257;33;20835;-80
2021/12/30 08:31:21;;;;;;;;;;;;;;;7.70;60.47;100281.78;4274818;33;20387;-82
2021/12/30 08:33:48;;;;;;;;;;;;;;;7.81;60.27;100290.75;4277913;33;19981;-80
2021/12/30 08:36:15;;;;;;;;;;;;;;;7.65;61.15;100291.03;4256081;33;20009;-81
2021/12/30 08:38:41;;;;;;;;;;;;;;;7.61;61.53;100302.06;4251207;33;20018;-80
2021/12/30 08:41:09;;;;;;;;;;;;;;;7.49;62.43;100296.47;4271944;33;20055;-83
2021/12/30 08:43:35;;;;;;;;;;;;;;;7.55;61.58;100296.69;4277920;33;19984;-80
2021/12/30 08:46:02;;;;;;;;;;;;;;;7.26;62.58;100288.81;4289482;33;19988;-81
2021/12/30 08:48:31;;;;;;;;;;;;;;;7.60;61.14;100300.31;4249221;33;19996;-80
2021/12/30 08:50:57;;;;;;;;;;;;;;;7.66;61.13;100300.53;4227549;33;795987;-80
2021/12/30 08:53:25;;;;;;;;;;;;;;;7.69;61.27;100310.97;4251814;33;20032;-80
2021/12/30 08:55:52;;;;;;;;;;;;;;;7.55;61.89;100309.56;4269396;33;20008;-80
2021/12/30 08:58:19;;;;;;;;;;;;;;;7.54;61.91;100313.00;4275992;33;19985;-81
2021/12/30 09:00:49;;;;;;;;;;;;;;;7.59;61.77;100312.31;4268163;33;20063;-80
2021/12/30 09:03:16;;;;;;;;;;;;;;;7.79;61.34;100310.44;4279347;33;20434;-78
2021/12/30 09:05:44;;;;;;;;;;;;;;;7.78;61.41;100306.09;4278212;33;20466;-79
2021/12/30 09:08:11;;;;;;;;;;;;;;;7.56;61.94;100309.66;4263822;33;20027;-78
2021/12/30 09:10:40;;;;;;;;;;;;;;;7.68;61.50;100319.50;4277715;33;20036;-78
2021/12/30 09:13:08;;;;;;;;;;;;;;;7.66;61.92;100327.19;4266294;33;20044;-80
2021/12/30 09:15:36;;;;;;;;;;;;;;;7.85;61.24;100318.41;4264899;33;20033;-79
2021/12/30 09:18:05;;;;;;;;;;;;;;;7.39;62.04;100306.44;4275783;33;20884;-82
2021/12/30 09:20:32;;;;;;;;;;;;;;;7.77;61.36;100304.34;4262694;33;19980;-79
2021/12/30 09:22:59;;;;;;;;;;;;;;;7.92;60.97;100302.31;4273436;33;19989;-83
2021/12/30 09:25:26;;;;;;;;;;;;;;;8.11;60.60;100305.53;4260086;33;20033;-83
2021/12/30 09:27:54;;;;;;;;;;;;;;;7.93;61.02;100291.16;4242561;33;20013;-82
2021/12/30 09:30:20;;;;;;;;;;;;;;;8.21;60.51;100299.84;4267828;33;20013;-81
2021/12/30 09:32:48;;;;;;;;;;;;;;;8.16;60.92;100298.78;4266580;33;20017;-82
2021/12/30 09:35:15;;;;;;;;;;;;;;;8.23;60.77;100305.94;4260134;33;20008;-82
2021/12/30 09:37:42;;;;;;;;;;;;;;;8.32;60.24;100316.50;4260835;33;20008;-82
2021/12/30 09:40:13;;;;;;;;;;;;;;;8.20;60.55;100316.13;4276280;33;19985;-82
2021/12/30 09:42:46;;;;;;;;;;;;;;;8.35;59.34;100320.91;4252813;33;19999;-83
2021/12/30 09:45:14;;;;;;;;;;;;;;;8.11;60.55;100327.03;4274945;33;20060;-83
2021/12/30 09:47:45;;;;;;;;;;;;;;;8.07;60.75;100324.25;4275747;33;20011;-82
2021/12/30 09:50:11;;;;;;;;;;;;;;;7.90;61.17;100327.16;4270751;33;19993;-82
2021/12/30 09:52:39;;;;;;;;;;;;;;;7.98;61.07;100334.28;4284853;33;19992;-83
2021/12/30 09:55:06;;;;;;;;;;;;;;;7.87;61.54;100337.34;4266084;33;20049;-82
2021/12/30 09:57:32;;;;;;;;;;;;;;;7.85;61.81;100338.16;4266170;33;21011;-81
2021/12/30 09:59:59;;;;;;;;;;;;;;;7.95;61.21;100329.03;4288700;33;20001;-84
2021/12/30 10:02:37;;;;;;;;;;;;;;;7.92;61.14;100334.94;4263424;33;20007;-82
2021/12/30 10:05:05;;;;;;;;;;;;;;;8.08;61.10;100328.63;4287230;33;19984;-82
2021/12/30 10:07:32;;;;;;;;;;;;;;;8.35;59.65;100326.06;4280901;33;19996;-83
2021/12/30 10:10:02;;;;;;;;;;;;;;;8.27;60.33;100327.53;4266775;33;20000;-83
2021/12/30 10:12:33;;;;;;;;;;;;;;;7.90;61.89;100327.16;4279452;33;19985;-84
2021/12/30 10:15:01;;;;;;;;;;;;;;;7.68;62.83;100319.50;4265544;33;19989;-83
2021/12/30 10:17:28;;;;;;;;;;;;;;;8.15;61.35;100322.84;4242118;33;19992;-83
2021/12/30 10:19:56;;;;;;;;;;;;;;;7.61;62.63;100330.41;4278705;33;20439;-83
2021/12/30 10:22:23;;;;;;;;;;;;;;;7.83;62.23;100325.19;4264660;33;20036;-82
2021/12/30 10:24:51;;;;;;;;;;;;;;;8.01;61.96;100318.91;4265891;33;20032;-83
2021/12/30 10:27:22;;;;;;;;;;;;;;;8.15;61.43;100328.00;4253499;33;20885;-83
2021/12/30 10:29:49;;;;;;;;;;;;;;;8.07;61.46;100319.09;4260856;33;20487;-82
2021/12/30 10:32:16;;;;;;;;;;;;;;;7.96;62.03;100320.47;4278957;33;20525;-82
2021/12/30 10:35:02;;;;;;;;;;;;;;;8.20;61.09;100326.47;4278807;33;20050;-82
2021/12/30 10:37:29;;;;;;;;;;;;;;;8.18;60.99;100328.09;4278570;33;20041;-82
2021/12/30 10:39:56;;;;;;;;;;;;;;;8.42;60.67;100322.88;4278974;33;20941;-82
2021/12/30 10:42:23;;;;;;;;;;;;;;;8.27;61.15;100328.41;4265301;33;19992;-83
2021/12/30 10:44:55;;;;;;;;;;;;;;;8.34;61.23;100330.34;4265917;33;19981;-86
2021/12/30 10:47:24;;;;;;;;;;;;;;;8.51;60.55;100319.72;4253373;33;20342;-84
2021/12/30 10:50:08;;;;;;;;;;;;;;;8.32;61.34;100319.09;4278139;33;20002;-86
2021/12/30 10:52:45;;;;;;;;;;;;;;;8.53;60.33;100315.50;4265878;33;20423;-85
2021/12/30 10:55:12;;;;;;;;;;;;;;;8.21;61.34;100310.16;4264740;33;20029;-83
2021/12/30 10:57:39;;;;;;;;;;;;;;;8.59;60.28;100310.53;4251352;33;19985;-83
2021/12/30 11:00:08;;;;;;;;;;;;;;;8.92;59.11;100304.66;4265778;33;20032;-87
2021/12/30 11:02:37;;;;;;;;;;;;;;;8.75;59.83;100301.56;4278690;33;20846;-83
2021/12/30 11:05:09;;;;;;;;;;;;;;;8.73;60.43;100295.47;4272676;33;20020;-81
2021/12/30 11:07:43;;;;;;;;;;;;;;;9.03;59.76;100293.84;4256876;33;20691;-83
2021/12/30 11:10:11;;;;;;;;;;;;;;;8.63;61.21;100296.91;4250053;33;20010;-85
2021/12/30 11:12:41;;;;;;;;;;;;;;;8.79;60.47;100296.53;4259440;33;20360;-86
2021/12/30 11:15:32;;;;;;;;;;;;;;;8.80;60.51;100298.28;4266800;33;20088;-85
2021/12/30 11:18:06;;;;;;;;;;;;;;;8.66;60.58;100296.12;4282158;33;19980;-85
2021/12/30 11:20:37;;;;;;;;;;;;;;;8.70;60.61;100298.84;4270848;33;19980;-85
2021/12/30 11:23:04;;;;;;;;;;;;;;;8.85;60.40;100293.28;4260665;33;20012;-84
2021/12/30 11:25:31;;;;;;;;;;;;;;;8.75;60.52;100292.13;4264773;33;20037;-85
2021/12/30 11:27:58;;;;;;;;;;;;;;;8.91;59.83;100292.59;4270420;33;19989;-84
2021/12/30 11:30:26;;;;;;;;;;;;;;;8.88;60.07;100290.78;4291847;33;20011;-84
2021/12/30 11:32:53;;;;;;;;;;;;;;;8.84;60.56;100292.41;4272121;33;20717;-82
2021/12/30 11:35:21;;;;;;;;;;;;;;;8.77;60.90;100303.34;4281445;33;20027;-87
2021/12/30 11:37:48;;;;;;;;;;;;;;;8.75;60.31;100310.19;4260808;33;20007;-86
2021/12/30 11:40:17;;;;;;;;;;;;;;;8.75;60.50;100306.75;4278404;33;20525;-84
2021/12/30 11:42:52;;;;;;;;;;;;;;;8.73;60.42;100300.66;4265232;33;19980;-84
2021/12/30 11:45:23;;;;;;;;;;;;;;;8.69;60.94;100304.84;4259994;33;19992;-84
2021/12/30 11:47:50;;;;;;;;;;;;;;;8.67;61.00;100298.75;4265598;33;19993;-84
2021/12/30 11:50:26;;;;;;;;;;;;;;;8.32;61.73;100292.44;4278798;33;19981;-85
2021/12/30 11:53:06;;;;;;;;;;;;;;;8.41;61.74;100285.03;4277874;33;19981;-84
2021/12/30 11:55:42;;;;;;;;;;;;;;;8.67;60.69;100283.25;4278697;33;19976;-83
2021/12/30 11:58:49;;;;;;;;;;;;;;;8.33;62.41;100287.34;4278410;33;19976;-82
2021/12/30 12:01:19;;;;;;;;;;;;;;;8.50;61.61;100284.44;4278203;33;20128;-85
2021/12/30 12:03:52;;;;;;;;;;;;;;;8.56;61.50;100271.75;4278376;33;19992;-85
2021/12/30 12:06:38;;;;;;;;;;;;;;;8.73;60.95;100278.28;4266766;33;19992;-84
2021/12/30 12:09:07;;;;;;;;;;;;;;;8.49;61.26;100277.56;4278205;33;20030;-84
2021/12/30 12:11:47;;;;;;;;;;;;;;;8.92;60.28;100276.25;4265187;33;19988;-84
2021/12/30 12:14:19;;;;;;;;;;;;;;;8.74;61.23;100285.22;4265568;33;20020;-82
2021/12/30 12:16:49;;;;;;;;;;;;;;;8.90;60.58;100280.50;4265762;33;20033;-83
2021/12/30 12:19:18;;;;;;;;;;;;;;;8.67;61.39;100283.25;4264484;33;19980;-84
2021/12/30 12:21:50;;;;;;;;;;;;;;;8.71;61.68;100285.13;4275698;33;19992;-84
2021/12/30 12:24:20;;;;;;;;;;;;;;;8.94;60.92;100303.00;4273018;33;19976;-83
2021/12/30 12:26:57;;;;;;;;;;;;;;;8.92;61.13;100299.50;4278460;33;19991;-84
2021/12/30 12:29:32;;;;;;;;;;;;;;;8.71;61.65;100295.44;4259364;33;20003;-83
2021/12/30 12:32:10;;;;;;;;;;;;;;;8.87;61.38;100295.88;4272121;33;20864;-84
2021/12/30 12:34:41;;;;;;;;;;;;;;;8.92;60.55;100299.50;4286000;33;19991;-84
2021/12/30 12:37:27;;;;;;;;;;;;;;;8.84;60.73;100300.16;4268900;33;20001;-84
2021/12/30 12:40:02;;;;;;;;;;;;;;;9.15;59.98;100308.78;4286742;33;20004;-83
2021/12/30 12:42:48;;;;;;;;;;;;;;;9.10;60.53;100299.19;4278821;33;20336;-81
2021/12/30 12:45:16;;;;;;;;;;;;;;;9.20;60.20;100296.91;4281019;33;19987;-81
2021/12/30 12:47:43;;;;;;;;;;;;;;;8.97;60.81;100303.09;4268006;33;19984;-79
2021/12/30 12:50:10;;;;;;;;;;;;;;;8.98;60.90;100294.53;4269209;33;20043;-79
2021/12/30 12:52:47;;;;;;;;;;;;;;;9.10;60.15;100299.19;4262543;33;20041;-80
2021/12/30 12:55:20;;;;;;;;;;;;;;;9.11;60.38;100296.62;4261325;33;19986;-81
2021/12/30 12:57:47;;;;;;;;;;;;;;;9.27;60.32;100298.81;4254075;33;20077;-78